Time;durP1;ratioP1;P1;durP2;ratioP2;P2;SDS_P1;SDS_P2;PMS_P1;PMS_P2;Temp;Humidity;BMP_temperature;BMP_pressure;BME280_temperature;BME280_humidity;BME280_pressure;Samples;Min_cycle;Max_cycle;Signal;HPM_P1;HPM_P2
2022/09/11 00:01:26;;;;;;;1.98;0.80;;;;;;;13.17;100.00;95951.56;4975051;28;24585;-78
2022/09/11 00:03:55;;;;;;;1.35;0.88;;;;;;;13.20;100.00;95947.91;4973116;28;24501;-78
2022/09/11 00:06:23;;;;;;;1.80;0.63;;;;;;;13.17;100.00;95946.38;4975633;28;24480;-77
2022/09/11 00:08:56;;;;;;;4.00;0.70;;;;;;;13.15;100.00;95942.19;4975019;28;24454;-77
2022/09/11 00:11:22;;;;;;;1.63;0.68;;;;;;;13.12;100.00;95945.84;4971414;28;24621;-78
2022/09/11 00:13:50;;;;;;;2.15;0.93;;;;;;;13.08;100.00;95947.00;4974838;28;24441;-77
2022/09/11 00:16:25;;;;;;;1.98;0.70;;;;;;;13.11;100.00;95936.38;4976615;28;24445;-78
2022/09/11 00:18:53;;;;;;;1.75;0.77;;;;;;;13.10;100.00;95942.53;4969402;28;24520;-78
2022/09/11 00:21:20;;;;;;;1.42;0.82;;;;;;;13.07;100.00;95937.53;4975736;28;25007;-77
2022/09/11 00:23:47;;;;;;;6.80;1.00;;;;;;;13.18;100.00;95942.00;4975767;28;24799;-78
2022/09/11 00:26:14;;;;;;;1.83;0.80;;;;;;;13.18;100.00;95940.22;4975598;28;24492;-77
2022/09/11 00:28:40;;;;;;;1.50;0.85;;;;;;;13.21;100.00;95939.19;4975017;28;24446;-78
2022/09/11 00:31:11;;;;;;;2.78;0.90;;;;;;;13.25;100.00;95938.06;4974691;28;24449;-78
2022/09/11 00:33:41;;;;;;;2.67;0.73;;;;;;;13.33;100.00;95943.53;4974073;28;24962;-78
2022/09/11 00:36:11;;;;;;;1.10;0.68;;;;;;;13.34;100.00;95949.56;4974721;28;24504;-78
2022/09/11 00:38:39;;;;;;;2.58;0.73;;;;;;;13.38;100.00;95943.22;4974614;28;24440;-78
2022/09/11 00:41:10;;;;;;;3.33;1.60;;;;;;;13.37;100.00;95947.59;4971435;28;24434;-78
2022/09/11 00:43:59;;;;;;;7.60;3.50;;;;;;;13.40;100.00;95942.16;4974371;28;24434;-77
2022/09/11 00:46:34;;;;;;;5.40;2.90;;;;;;;13.31;100.00;95932.41;4974723;28;24433;-78
2022/09/11 00:49:06;;;;;;;5.00;2.55;;;;;;;13.26;100.00;95937.94;4971813;28;24446;-78
2022/09/11 00:51:35;;;;;;;5.25;2.58;;;;;;;13.29;100.00;95942.94;4973369;28;24446;-76
2022/09/11 00:54:03;;;;;;;2.78;1.80;;;;;;;13.26;100.00;95942.31;4974908;28;24446;-78
2022/09/11 00:56:34;;;;;;;4.32;2.08;;;;;;;13.26;100.00;95935.34;4974336;28;24995;-78
2022/09/11 00:59:01;;;;;;;2.70;2.15;;;;;;;13.27;100.00;95931.81;4969483;28;25327;-78
2022/09/11 01:01:28;;;;;;;4.83;2.40;;;;;;;13.24;100.00;95937.22;4974321;28;24468;-78
2022/09/11 01:03:55;;;;;;;4.43;2.33;;;;;;;13.25;100.00;95941.50;4974547;28;24429;-79
2022/09/11 01:06:24;;;;;;;5.28;2.90;;;;;;;13.25;100.00;95932.84;4966776;28;25034;-79
2022/09/11 01:08:51;;;;;;;4.50;2.72;;;;;;;13.27;100.00;95939.63;4967726;28;24441;-78
2022/09/11 01:11:29;;;;;;;4.13;2.60;;;;;;;13.30;100.00;95936.78;4971747;28;24521;-79
2022/09/11 01:14:05;;;;;;;3.45;1.73;;;;;;;13.31;100.00;95938.47;4970650;28;24437;-78
2022/09/11 01:16:38;;;;;;;4.93;1.40;;;;;;;13.23;100.00;95935.53;4971432;28;24440;-78
2022/09/11 01:19:20;;;;;;;4.15;1.20;;;;;;;13.14;100.00;95928.38;4964822;28;24429;-78
2022/09/11 01:22:06;;;;;;;3.17;1.10;;;;;;;13.13;100.00;95937.13;4971728;28;24468;-78
2022/09/11 01:24:53;;;;;;;2.80;1.30;;;;;;;13.14;100.00;95932.75;4974554;28;25013;-78
2022/09/11 01:27:46;;;;;;;1.58;0.70;;;;;;;13.24;100.00;95939.84;4968894;28;24430;-78
2022/09/11 01:30:16;;;;;;;3.95;1.17;;;;;;;13.23;100.00;95930.34;4952003;28;24456;-78
2022/09/11 01:33:01;;;;;;;4.20;1.02;;;;;;;13.28;100.00;95938.66;4974354;28;24452;-79
2022/09/11 01:35:39;;;;;;;1.75;0.90;;;;;;;13.27;100.00;95938.75;4973892;28;24839;-78
2022/09/11 01:38:13;;;;;;;1.90;0.80;;;;;;;13.30;100.00;95936.78;4973073;28;24448;-78
2022/09/11 01:40:48;;;;;;;2.30;0.90;;;;;;;13.28;100.00;95940.44;4972824;28;24433;-78
2022/09/11 01:43:21;;;;;;;1.20;0.60;;;;;;;13.31;100.00;95932.41;4973247;28;25031;-78
2022/09/11 01:45:51;;;;;;;1.60;0.80;;;;;;;13.32;100.00;95936.69;4973049;28;24444;-78
2022/09/11 01:48:21;;;;;;;2.55;1.00;;;;;;;13.29;100.00;95948.13;4973063;28;24453;-78
2022/09/11 01:50:52;;;;;;;1.50;0.85;;;;;;;13.28;100.00;95938.66;4972909;28;24441;-78
2022/09/11 01:53:22;;;;;;;2.08;0.80;;;;;;;13.35;100.00;95939.06;4969237;28;24445;-78
2022/09/11 01:55:54;;;;;;;1.63;0.80;;;;;;;13.32;100.00;95940.13;4975109;28;24448;-78
2022/09/11 01:58:28;;;;;;;4.70;1.00;;;;;;;13.28;100.00;95938.66;4981019;28;24449;-79
2022/09/11 02:01:04;;;;;;;1.15;0.80;;;;;;;13.31;100.00;95946.25;4983806;28;24430;-78
2022/09/11 02:03:35;;;;;;;2.67;1.00;;;;;;;13.29;100.00;95944.69;4982731;28;24999;-79
2022/09/11 02:06:06;;;;;;;2.28;1.30;;;;;;;13.39;100.00;95945.72;4980232;28;25306;-79
2022/09/11 02:08:38;;;;;;;2.30;1.08;;;;;;;13.46;100.00;95935.69;4981592;28;24468;-78
2022/09/11 02:11:08;;;;;;;3.42;1.15;;;;;;;13.38;100.00;95936.22;4970561;28;24434;-78
2022/09/11 02:13:44;;;;;;;1.70;1.20;;;;;;;13.37;100.00;95939.78;4978500;28;25086;-78
2022/09/11 02:16:25;;;;;;;2.20;1.10;;;;;;;13.41;100.00;95943.81;4981095;28;24433;-79
2022/09/11 02:18:59;;;;;;;2.08;1.38;;;;;;;13.43;100.00;95938.53;4972338;28;24448;-79
2022/09/11 02:21:26;;;;;;;6.43;1.80;;;;;;;13.38;100.00;95940.59;4980613;28;24444;-79
2022/09/11 02:23:54;;;;;;;2.65;1.70;;;;;;;13.37;100.00;95936.34;4980652;28;24452;-79
2022/09/11 02:26:23;;;;;;;4.95;2.00;;;;;;;13.29;100.00;95940.31;4975104;28;25066;-78
2022/09/11 02:28:51;;;;;;;2.83;1.60;;;;;;;13.26;100.00;95943.13;4977453;28;24444;-78
2022/09/11 02:31:18;;;;;;;1.73;1.23;;;;;;;13.31;100.00;95941.06;4972421;28;24437;-79
2022/09/11 02:33:46;;;;;;;2.40;1.40;;;;;;;13.27;100.00;95941.38;4977427;28;24460;-78
2022/09/11 02:36:29;;;;;;;3.03;1.55;;;;;;;13.29;100.00;95949.91;4979821;28;24444;-78
2022/09/11 02:39:07;;;;;;;3.58;1.40;;;;;;;13.32;100.00;95947.91;4979582;28;24448;-77
2022/09/11 02:41:45;;;;;;;2.15;1.27;;;;;;;13.37;100.00;95951.97;4974154;28;25037;-77
2022/09/11 02:44:21;;;;;;;2.10;1.30;;;;;;;13.36;100.00;95951.13;4979598;28;24465;-79
2022/09/11 02:47:03;;;;;;;2.55;1.55;;;;;;;13.31;100.00;95951.47;4979792;28;24434;-77
2022/09/11 02:49:42;;;;;;;2.17;1.42;;;;;;;13.26;100.00;95950.13;4972169;28;24442;-78
2022/09/11 02:52:17;;;;;;;9.18;1.75;;;;;;;13.21;100.00;95958.22;4976521;28;24445;-78
2022/09/11 02:54:53;;;;;;;2.90;1.10;;;;;;;13.15;100.00;95953.44;4979741;28;24434;-78
2022/09/11 02:57:28;;;;;;;3.65;2.00;;;;;;;13.23;100.00;95964.16;4979688;28;24445;-78
2022/09/11 02:59:59;;;;;;;4.35;1.92;;;;;;;13.28;100.00;95962.09;4977536;28;24436;-78
2022/09/11 03:02:28;;;;;;;9.90;2.00;;;;;;;13.29;100.00;95955.09;4978048;28;24512;-77
2022/09/11 03:04:55;;;;;;;4.50;2.03;;;;;;;13.26;100.00;95952.72;4978382;28;24445;-77
2022/09/11 03:07:23;;;;;;;2.95;2.08;;;;;;;13.29;100.00;95957.72;4969950;28;24504;-78
2022/09/11 03:09:49;;;;;;;3.40;2.15;;;;;;;13.29;100.00;95949.91;4967803;28;24442;-78
2022/09/11 03:12:16;;;;;;;3.22;1.83;;;;;;;13.34;100.00;95954.78;4973039;28;24529;-78
2022/09/11 03:14:43;;;;;;;4.63;2.00;;;;;;;13.34;100.00;95962.56;4970493;28;24433;-77
2022/09/11 03:17:10;;;;;;;4.10;1.63;;;;;;;13.30;100.00;95960.19;4968561;28;24440;-77
2022/09/11 03:19:37;;;;;;;7.78;1.90;;;;;;;13.28;100.00;95963.84;4967169;28;24532;-77
2022/09/11 03:22:03;;;;;;;3.75;1.70;;;;;;;13.34;100.00;95955.59;4969551;28;24462;-78
2022/09/11 03:24:30;;;;;;;2.33;1.60;;;;;;;13.37;100.00;95967.56;4974145;28;24441;-77
2022/09/11 03:26:56;;;;;;;4.50;2.13;;;;;;;13.39;100.00;95969.13;4972735;28;24446;-78
2022/09/11 03:29:23;;;;;;;5.18;1.95;;;;;;;13.29;100.00;95971.53;4963799;28;25017;-77
2022/09/11 03:31:50;;;;;;;3.80;2.00;;;;;;;13.35;100.00;95966.84;4970890;28;24449;-78
2022/09/11 03:34:18;;;;;;;2.30;1.60;;;;;;;13.32;100.00;95975.69;4974274;28;24565;-78
2022/09/11 03:36:45;;;;;;;3.75;2.10;;;;;;;13.36;100.00;95978.91;4972914;28;24449;-78
2022/09/11 03:39:12;;;;;;;5.22;2.53;;;;;;;13.31;100.00;95974.88;4962900;28;24446;-78
2022/09/11 03:41:38;;;;;;;4.07;2.28;;;;;;;13.36;100.00;95971.13;4973386;28;24448;-77
2022/09/11 03:44:05;;;;;;;5.05;2.20;;;;;;;13.30;100.00;95972.38;4973328;28;24449;-78
2022/09/11 03:46:31;;;;;;;3.28;2.28;;;;;;;13.28;100.00;95976.84;4974253;28;24442;-77
2022/09/11 03:48:59;;;;;;;5.97;2.28;;;;;;;13.28;100.00;95979.47;4971023;28;24434;-77
2022/09/11 03:51:27;;;;;;;4.15;2.60;;;;;;;13.36;100.00;95976.31;4973314;28;24489;-78
2022/09/11 03:53:53;;;;;;;5.07;2.38;;;;;;;13.41;100.00;95977.66;4976218;28;24441;-79
2022/09/11 03:56:20;;;;;;;3.80;2.50;;;;;;;13.31;100.00;95984.44;4975523;28;24799;-78
2022/09/11 03:58:47;;;;;;;3.90;2.50;;;;;;;13.27;100.00;95982.97;4974461;28;24465;-78
2022/09/11 04:01:17;;;;;;;4.65;2.80;;;;;;;13.25;100.00;95979.66;4969343;28;24452;-78
2022/09/11 04:03:44;;;;;;;5.07;2.80;;;;;;;13.22;100.00;95983.28;4974417;28;24480;-77
2022/09/11 04:06:10;;;;;;;5.63;2.83;;;;;;;13.24;100.00;95988.41;4973347;28;24438;-78
2022/09/11 04:08:40;;;;;;;4.10;2.75;;;;;;;13.26;100.00;95986.53;4974237;28;24438;-77
2022/09/11 04:11:07;;;;;;;7.13;2.92;;;;;;;13.23;100.00;95987.56;4971428;28;24841;-78
2022/09/11 04:13:35;;;;;;;5.00;3.00;;;;;;;13.23;100.00;95989.31;4973374;28;24446;-77
2022/09/11 04:16:04;;;;;;;6.60;3.25;;;;;;;13.23;100.00;95992.75;4969563;28;24441;-77
2022/09/11 04:18:35;;;;;;;4.57;3.53;;;;;;;13.23;100.00;95990.16;4973669;28;24464;-78
2022/09/11 04:21:04;;;;;;;5.97;3.30;;;;;;;13.24;100.00;95983.22;4966480;28;25018;-78
2022/09/11 04:23:30;;;;;;;4.25;3.20;;;;;;;13.24;100.00;95980.63;4974042;28;24449;-78
2022/09/11 04:25:58;;;;;;;5.60;2.70;;;;;;;13.26;100.00;95971.75;4973276;28;24453;-77
2022/09/11 04:28:24;;;;;;;3.50;2.50;;;;;;;13.23;100.00;95977.16;4966427;28;24987;-77
2022/09/11 04:30:51;;;;;;;7.77;2.60;;;;;;;13.34;100.00;95981.63;4969719;28;24522;-78
2022/09/11 04:33:17;;;;;;;7.07;2.80;;;;;;;13.38;100.00;95971.81;4973427;28;24440;-78
2022/09/11 04:35:44;;;;;;;2.80;2.22;;;;;;;13.41;100.00;95980.25;4969435;28;24793;-78
2022/09/11 04:38:10;;;;;;;3.65;2.20;;;;;;;13.36;100.00;95977.16;4973312;28;24437;-78
2022/09/11 04:40:37;;;;;;;3.17;2.00;;;;;;;13.33;100.00;95987.75;4972590;28;24815;-77
2022/09/11 04:43:05;;;;;;;2.60;2.20;;;;;;;13.33;100.00;95987.75;4971307;28;24465;-77
2022/09/11 04:45:32;;;;;;;4.00;2.28;;;;;;;13.35;100.00;95990.25;4965311;28;24543;-77
2022/09/11 04:47:59;;;;;;;2.88;2.20;;;;;;;13.26;100.00;95991.72;4972949;28;25001;-77
2022/09/11 04:50:25;;;;;;;3.25;2.30;;;;;;;13.24;100.00;95991.84;4971897;28;24792;-78
2022/09/11 04:52:52;;;;;;;3.00;2.05;;;;;;;13.20;100.00;96000.78;4970755;28;25033;-78
2022/09/11 04:55:18;;;;;;;3.72;2.40;;;;;;;13.17;100.00;96000.97;4972957;28;24441;-78
2022/09/11 04:57:45;;;;;;;3.75;2.60;;;;;;;13.08;100.00;96004.19;4972089;28;24445;-77
2022/09/11 05:00:14;;;;;;;5.20;2.83;;;;;;;13.10;100.00;96006.72;4974565;28;24514;-77
2022/09/11 05:02:41;;;;;;;4.77;3.00;;;;;;;13.08;100.00;96014.59;4972892;28;24492;-78
2022/09/11 05:05:08;;;;;;;4.57;3.13;;;;;;;13.09;100.00;96016.28;4975867;28;24437;-78
2022/09/11 05:07:35;;;;;;;3.25;2.90;;;;;;;13.22;100.00;96030.09;4972855;28;24492;-76
2022/09/11 05:10:02;;;;;;;5.10;2.40;;;;;;;13.27;100.00;96027.19;4968105;28;24439;-76
2022/09/11 05:12:29;;;;;;;5.00;2.83;;;;;;;13.23;100.00;96025.72;4970516;28;24983;-75
2022/09/11 05:14:55;;;;;;;3.72;2.40;;;;;;;13.22;100.00;96027.50;4959709;28;24445;-76
2022/09/11 05:17:23;;;;;;;3.22;2.40;;;;;;;13.31;100.00;96036.44;4968222;28;24441;-76
2022/09/11 05:19:50;;;;;;;3.65;2.47;;;;;;;13.35;100.00;96026.66;4970966;28;24999;-75
2022/09/11 05:22:16;;;;;;;3.30;2.45;;;;;;;13.41;100.00;96032.28;4970459;28;24449;-75
2022/09/11 05:24:43;;;;;;;2.40;2.03;;;;;;;13.44;100.00;96034.66;4962826;28;24991;-76
2022/09/11 05:27:10;;;;;;;3.70;2.13;;;;;;;13.49;100.00;96040.38;4970773;28;24820;-76
2022/09/11 05:29:37;;;;;;;4.97;2.75;;;;;;;13.58;100.00;96038.91;4967863;28;24457;-75
2022/09/11 05:32:04;;;;;;;3.67;2.42;;;;;;;13.64;100.00;96042.84;4970433;28;24448;-75
2022/09/11 05:34:33;;;;;;;3.47;2.78;;;;;;;13.51;100.00;96038.50;4971247;28;24480;-75
2022/09/11 05:37:01;;;;;;;4.00;3.20;;;;;;;13.42;100.00;96049.56;4970890;28;25010;-75
2022/09/11 05:39:27;;;;;;;5.03;3.10;;;;;;;13.43;100.00;96053.00;4971198;28;24504;-75
2022/09/11 05:41:54;;;;;;;3.08;2.42;;;;;;;13.43;100.00;96047.78;4971127;28;25720;-75
2022/09/11 05:44:21;;;;;;;3.42;2.90;;;;;;;13.43;100.00;96055.59;4971139;28;24999;-75
2022/09/11 05:46:48;;;;;;;4.40;3.20;;;;;;;13.42;100.00;96057.38;4970168;28;24807;-75
2022/09/11 05:49:14;;;;;;;4.85;3.05;;;;;;;13.32;100.00;96059.78;4970741;28;24752;-75
2022/09/11 05:51:42;;;;;;;3.38;2.60;;;;;;;13.50;100.00;96064.66;4971304;28;24836;-75
2022/09/11 05:54:09;;;;;;;4.25;3.30;;;;;;;13.39;100.00;96062.78;4963430;28;24422;-75
2022/09/11 05:56:35;;;;;;;7.10;3.40;;;;;;;13.49;100.00;96065.56;4966372;28;24440;-75
2022/09/11 05:59:02;;;;;;;3.67;2.80;;;;;;;13.59;100.00;96066.59;4969727;28;24449;-75
2022/09/11 06:01:29;;;;;;;3.17;2.75;;;;;;;13.67;100.00;96074.69;4969617;28;24504;-75
2022/09/11 06:03:56;;;;;;;2.95;2.58;;;;;;;13.71;100.00;96076.13;4967788;28;24983;-75
2022/09/11 06:06:23;;;;;;;4.55;3.00;;;;;;;13.66;100.00;96080.84;4968114;28;24521;-75
2022/09/11 06:08:51;;;;;;;4.25;2.80;;;;;;;13.74;100.00;96081.13;4970364;28;24438;-75
2022/09/11 06:11:20;;;;;;;6.37;2.93;;;;;;;13.83;100.00;96086.63;4970586;28;25049;-75
2022/09/11 06:13:47;;;;;;;3.80;2.90;;;;;;;13.81;100.00;96086.75;4970768;28;24447;-75
2022/09/11 06:16:16;;;;;;;2.80;2.42;;;;;;;13.88;100.00;96087.16;4961075;28;24555;-74
2022/09/11 06:18:42;;;;;;;3.78;3.20;;;;;;;13.79;100.00;96089.47;4969924;28;24438;-75
2022/09/11 06:21:11;;;;;;;4.32;3.30;;;;;;;13.75;100.00;96094.97;4970550;28;24437;-75
2022/09/11 06:23:39;;;;;;;3.72;3.15;;;;;;;13.78;100.00;96095.59;4959640;28;24542;-74
2022/09/11 06:26:09;;;;;;;6.70;3.40;;;;;;;13.85;100.00;96090.78;4970973;28;24437;-75
2022/09/11 06:28:36;;;;;;;6.75;3.45;;;;;;;13.92;100.00;96089.41;4971345;28;24444;-75
2022/09/11 06:31:04;;;;;;;4.20;3.58;;;;;;;13.93;100.00;96096.28;4963134;28;25022;-75
2022/09/11 06:33:32;;;;;;;3.85;3.22;;;;;;;13.95;100.00;96096.19;4970117;28;24887;-74
2022/09/11 06:36:00;;;;;;;4.40;3.40;;;;;;;13.98;100.00;96099.41;4967418;28;24563;-70
2022/09/11 06:38:28;;;;;;;4.70;3.50;;;;;;;13.98;100.00;96102.00;4968799;28;24812;-74
2022/09/11 06:40:55;;;;;;;6.45;3.63;;;;;;;13.95;100.00;96098.78;4970464;28;25001;-75
2022/09/11 06:43:23;;;;;;;4.93;3.40;;;;;;;14.00;100.00;96101.88;4973682;28;24473;-75
2022/09/11 06:45:50;;;;;;;5.22;3.80;;;;;;;14.02;100.00;96100.84;4967887;28;24792;-75
2022/09/11 06:48:18;;;;;;;4.30;3.38;;;;;;;14.08;100.00;96104.78;4969663;28;24476;-79
2022/09/11 06:50:45;;;;;;;5.40;3.63;;;;;;;14.16;100.00;96105.03;4973756;28;24527;-75
2022/09/11 06:53:13;;;;;;;4.70;3.78;;;;;;;14.17;100.00;96098.91;4968567;28;24442;-75
2022/09/11 06:55:40;;;;;;;6.72;4.32;;;;;;;14.18;100.00;96104.97;4973718;28;24512;-75
2022/09/11 06:58:07;;;;;;;4.72;3.83;;;;;;;14.26;100.00;96113.03;4973353;28;24445;-75
2022/09/11 07:00:36;;;;;;;6.45;4.43;;;;;;;14.28;100.00;96116.38;4973806;28;24448;-75
2022/09/11 07:03:02;;;;;;;5.95;3.83;;;;;;;14.40;100.00;96119.88;4967460;28;25063;-75
2022/09/11 07:05:29;;;;;;;4.53;3.92;;;;;;;14.29;100.00;96111.06;4973740;28;24436;-75
2022/09/11 07:07:56;;;;;;;4.30;3.92;;;;;;;14.38;100.00;96113.94;4973586;28;24433;-76
2022/09/11 07:10:23;;;;;;;5.20;4.50;;;;;;;14.34;100.00;96110.72;4970666;28;24465;-78
2022/09/11 07:12:52;;;;;;;5.13;4.63;;;;;;;14.39;100.00;96111.22;4977182;28;24885;-76
2022/09/11 07:15:19;;;;;;;6.85;4.93;;;;;;;14.43;100.00;96111.84;4977577;28;24426;-80
2022/09/11 07:17:47;;;;;;;7.00;5.03;;;;;;;14.56;100.00;96119.63;4978418;28;24524;-78
2022/09/11 07:20:13;;;;;;;5.70;4.50;;;;;;;14.57;100.00;96118.66;4977085;28;24438;-77
2022/09/11 07:22:40;;;;;;;5.25;4.47;;;;;;;14.59;100.00;96125.44;4976115;28;24445;-79
2022/09/11 07:25:07;;;;;;;6.10;4.67;;;;;;;14.58;100.00;96123.78;4971980;28;24533;-79
2022/09/11 07:27:34;;;;;;;7.70;4.68;;;;;;;14.67;100.00;96125.69;4979750;28;24432;-78
2022/09/11 07:30:00;;;;;;;5.50;5.00;;;;;;;14.60;100.00;96134.09;4976185;28;24436;-79
2022/09/11 07:32:26;;;;;;;6.55;4.90;;;;;;;14.77;100.00;96133.69;4979475;28;24434;-79
2022/09/11 07:34:55;;;;;;;5.78;4.60;;;;;;;15.07;100.00;96132.34;4979512;28;24861;-80
2022/09/11 07:37:22;;;;;;;5.90;4.13;;;;;;;14.98;100.00;96136.47;4979128;28;24469;-80
2022/09/11 07:39:49;;;;;;;7.38;4.40;;;;;;;15.15;100.00;96140.44;4978192;28;24432;-78
2022/09/11 07:42:15;;;;;;;5.50;4.30;;;;;;;15.23;100.00;96140.69;4978840;28;24438;-79
2022/09/11 07:44:41;;;;;;;6.82;4.72;;;;;;;15.04;100.00;96141.22;4978211;28;25005;-79
2022/09/11 07:47:08;;;;;;;5.57;4.82;;;;;;;15.05;100.00;96142.06;4978474;28;24827;-79
2022/09/11 07:49:34;;;;;;;7.17;5.07;;;;;;;15.07;100.00;96151.44;4977700;28;24441;-79
2022/09/11 07:52:03;;;;;;;5.55;4.95;;;;;;;15.02;100.00;96156.19;4972933;28;25324;-78
2022/09/11 07:54:29;;;;;;;7.32;5.35;;;;;;;15.13;100.00;96151.00;4977604;28;24421;-79
2022/09/11 07:56:56;;;;;;;8.00;4.93;;;;;;;15.04;100.00;96151.66;4977926;28;24531;-79
2022/09/11 07:59:23;;;;;;;7.78;5.25;;;;;;;15.10;100.00;96146.00;4975867;28;24452;-78
2022/09/11 08:01:51;;;;;;;5.28;4.75;;;;;;;15.06;100.00;96156.78;4977999;28;25276;-79
2022/09/11 08:04:18;;;;;;;6.88;5.32;;;;;;;15.19;100.00;96158.34;4975335;28;24987;-78
2022/09/11 08:06:44;;;;;;;5.97;5.10;;;;;;;15.32;100.00;96154.84;4975456;28;24440;-79
2022/09/11 08:09:14;;;;;;;6.40;5.32;;;;;;;15.27;100.00;96156.94;4976548;28;24436;-78
2022/09/11 08:11:44;;;;;;;6.63;4.90;;;;;;;15.11;100.00;96152.06;4976560;28;24438;-78
2022/09/11 08:14:12;;;;;;;5.85;4.82;;;;;;;15.30;100.00;96156.72;4976676;28;24438;-78
2022/09/11 08:16:39;;;;;;;5.57;4.88;;;;;;;15.34;100.00;96155.53;4977335;28;24433;-78
2022/09/11 08:19:06;;;;;;;4.78;4.10;;;;;;;15.60;100.00;96151.75;4976719;28;24429;-78
2022/09/11 08:21:33;;;;;;;6.65;5.43;;;;;;;15.89;100.00;96146.09;4978216;28;24440;-78
2022/09/11 08:24:00;;;;;;;6.85;4.13;;;;;;;16.27;100.00;96164.00;4970785;28;24809;-78
2022/09/11 08:26:30;;;;;;;6.72;4.70;;;;;;;16.32;100.00;96155.81;4976654;28;24444;-78
2022/09/11 08:28:58;;;;;;;6.85;4.03;;;;;;;16.27;100.00;96156.16;4977100;28;24851;-78
2022/09/11 08:31:27;;;;;;;4.53;4.00;;;;;;;16.48;100.00;96156.22;4977228;28;24476;-78
2022/09/11 08:33:54;;;;;;;5.40;4.30;;;;;;;16.42;100.00;96159.31;4976886;28;24445;-77
2022/09/11 08:36:22;;;;;;;5.10;4.35;;;;;;;16.20;100.00;96166.28;4973081;28;24453;-75
2022/09/11 08:38:50;;;;;;;6.57;4.57;;;;;;;16.23;100.00;96161.75;4972846;28;24421;-76
2022/09/11 08:41:32;;;;;;;6.22;4.00;;;;;;;16.46;100.00;96163.34;4974862;28;24975;-74
2022/09/11 08:44:01;;;;;;;6.00;4.97;;;;;;;16.14;100.00;96163.31;4974675;28;24457;-74
2022/09/11 08:46:34;;;;;;;7.18;5.50;;;;;;;16.32;100.00;96161.84;4974236;28;24441;-74
2022/09/11 08:49:06;;;;;;;8.23;5.22;;;;;;;16.52;100.00;96162.03;4970483;28;24488;-74
2022/09/11 08:51:33;;;;;;;5.30;4.80;;;;;;;16.65;100.00;96171.41;4973308;28;25006;-74
2022/09/11 08:54:01;;;;;;;5.60;4.32;;;;;;;16.67;100.00;96172.09;4974081;28;24425;-74
2022/09/11 08:56:33;;;;;;;5.03;4.50;;;;;;;16.77;100.00;96168.78;4973471;28;24437;-75
2022/09/11 08:59:14;;;;;;;6.82;4.97;;;;;;;16.82;100.00;96169.22;4970037;28;24430;-74
2022/09/11 09:01:48;;;;;;;6.07;4.30;;;;;;;17.12;100.00;96169.31;4972767;28;24496;-75
2022/09/11 09:04:31;;;;;;;6.95;4.45;;;;;;;16.96;100.00;96176.78;4967600;28;24460;-74
2022/09/11 09:07:06;;;;;;;7.88;4.28;;;;;;;17.06;100.00;96172.47;4972050;28;24441;-74
2022/09/11 09:09:42;;;;;;;5.20;4.50;;;;;;;16.64;100.00;96180.19;4972335;28;24436;-74
2022/09/11 09:12:20;;;;;;;7.80;3.85;;;;;;;16.60;100.00;96191.84;4967589;28;25037;-74
2022/09/11 09:14:58;;;;;;;4.95;4.43;;;;;;;16.98;100.00;96185.31;4971562;28;24500;-75
2022/09/11 09:17:30;;;;;;;4.78;4.10;;;;;;;16.81;100.00;96178.03;4972549;28;24434;-73
2022/09/11 09:20:01;;;;;;;7.53;5.05;;;;;;;17.06;100.00;96179.50;4971977;28;25069;-75
2022/09/11 09:22:37;;;;;;;5.50;4.25;;;;;;;17.44;100.00;96189.38;4971760;28;24445;-74
2022/09/11 09:25:11;;;;;;;6.57;4.50;;;;;;;17.37;100.00;96190.84;4968636;28;24458;-75
2022/09/11 09:27:44;;;;;;;4.00;3.60;;;;;;;17.88;100.00;96179.59;4972916;28;24436;-74
2022/09/11 09:30:16;;;;;;;4.53;3.70;;;;;;;18.09;100.00;96188.22;4972051;28;24448;-74
2022/09/11 09:32:49;;;;;;;5.57;3.63;;;;;;;17.80;100.00;96179.44;4972074;28;24448;-74
2022/09/11 09:35:22;;;;;;;5.63;3.88;;;;;;;17.59;100.00;96185.47;4971975;28;24477;-74
2022/09/11 09:37:48;;;;;;;4.60;3.78;;;;;;;17.10;100.00;96189.56;4960354;28;24977;-75
2022/09/11 09:40:17;;;;;;;5.25;3.95;;;;;;;16.97;100.00;96191.50;4958949;28;24437;-74
2022/09/11 09:43:09;;;;;;;4.10;3.70;;;;;;;16.65;100.00;96187.09;4966270;28;24561;-74
2022/09/11 09:45:43;;;;;;;5.38;3.97;;;;;;;16.68;100.00;96193.84;4961285;28;25017;-74
2022/09/11 09:48:10;;;;;;;4.10;3.63;;;;;;;17.04;100.00;96189.25;4972158;28;24445;-75
2022/09/11 09:50:39;;;;;;;6.75;4.32;;;;;;;17.33;100.00;96179.81;4971850;28;25023;-75
2022/09/11 09:53:15;;;;;;;4.75;4.35;;;;;;;17.44;100.00;96192.00;4959873;28;24442;-75
2022/09/11 09:55:43;;;;;;;4.45;4.00;;;;;;;17.67;100.00;96192.69;4970908;28;24433;-75
2022/09/11 09:58:11;;;;;;;7.30;4.25;;;;;;;18.02;100.00;96194.13;4960734;28;24453;-75
2022/09/11 10:00:40;;;;;;;6.72;4.00;;;;;;;18.05;100.00;96191.25;4964380;28;24436;-75
2022/09/11 10:03:27;;;;;;;4.05;3.65;;;;;;;18.01;97.96;96192.47;4971874;28;24464;-75
2022/09/11 10:05:55;;;;;;;4.40;4.00;;;;;;;17.99;93.39;96189.16;4968678;28;24524;-75
2022/09/11 10:08:28;;;;;;;5.57;4.10;;;;;;;18.31;90.24;96187.19;4971711;28;24442;-74
2022/09/11 10:10:57;;;;;;;5.50;4.30;;;;;;;18.28;88.81;96189.25;4969118;28;24969;-75
2022/09/11 10:13:27;;;;;;;4.65;3.97;;;;;;;18.32;94.86;96185.41;4969125;28;24437;-76
2022/09/11 10:15:56;;;;;;;4.25;3.28;;;;;;;18.91;91.46;96186.34;4970745;28;24441;-76
2022/09/11 10:18:41;;;;;;;3.30;3.00;;;;;;;19.21;92.07;96180.16;4975041;28;24457;-75
2022/09/11 10:21:15;;;;;;;4.63;3.58;;;;;;;19.16;87.21;96174.47;4963277;28;24489;-75
2022/09/11 10:23:46;;;;;;;5.70;3.42;;;;;;;18.77;86.51;96185.81;4974442;28;24449;-75
2022/09/11 10:26:16;;;;;;;4.30;3.20;;;;;;;18.62;89.17;96177.47;4969078;28;24457;-75
2022/09/11 10:28:45;;;;;;;3.80;3.10;;;;;;;18.61;89.15;96175.81;4974626;28;24437;-76
2022/09/11 10:31:15;;;;;;;5.10;3.22;;;;;;;19.25;85.89;96173.66;4970100;28;24446;-76
2022/09/11 10:33:47;;;;;;;5.65;3.20;;;;;;;19.20;84.92;96168.81;4971356;28;25014;-75
2022/09/11 10:36:23;;;;;;;5.00;3.17;;;;;;;19.30;84.11;96168.81;4974297;28;24430;-75
2022/09/11 10:38:50;;;;;;;5.82;3.28;;;;;;;19.38;82.58;96168.91;4963111;28;24437;-76
2022/09/11 10:41:20;;;;;;;3.83;3.05;;;;;;;19.10;83.65;96168.00;4964023;28;24445;-76
2022/09/11 10:43:52;;;;;;;3.80;3.10;;;;;;;18.87;86.19;96167.44;4972166;28;24479;-75
2022/09/11 10:46:40;;;;;;;4.20;3.30;;;;;;;19.09;88.94;96164.53;4974281;28;24476;-76
2022/09/11 10:49:15;;;;;;;6.27;3.30;;;;;;;19.24;83.98;96171.97;4961718;28;24986;-76
2022/09/11 10:51:45;;;;;;;3.80;3.45;;;;;;;19.04;84.58;96165.91;4973999;28;24447;-75
2022/09/11 10:54:27;;;;;;;3.88;3.30;;;;;;;19.10;83.18;96158.31;4974220;28;25045;-75
2022/09/11 10:57:04;;;;;;;4.90;2.95;;;;;;;19.18;83.05;96162.06;4973735;28;24440;-76
2022/09/11 10:59:40;;;;;;;3.38;2.85;;;;;;;19.17;85.36;96168.25;4974378;28;24437;-75
2022/09/11 11:02:19;;;;;;;3.45;2.90;;;;;;;18.62;83.57;96166.16;4967035;28;25003;-75
2022/09/11 11:04:47;;;;;;;4.43;3.07;;;;;;;18.59;79.42;96164.63;4976956;28;24995;-76
2022/09/11 11:07:27;;;;;;;3.40;2.97;;;;;;;18.51;79.72;96167.09;4977357;28;24437;-76
2022/09/11 11:10:05;;;;;;;3.97;2.80;;;;;;;18.74;79.31;96166.88;4974227;28;25189;-76
2022/09/11 11:12:45;;;;;;;3.53;2.53;;;;;;;19.03;78.52;96166.91;4970138;28;24481;-76
2022/09/11 11:15:44;;;;;;;2.70;2.40;;;;;;;19.05;83.28;96175.44;4967843;28;24447;-76
2022/09/11 11:18:37;;;;;;;4.13;2.43;;;;;;;19.34;84.79;96163.13;4973939;28;24482;-75
2022/09/11 11:21:15;;;;;;;3.17;2.70;;;;;;;19.21;85.66;96164.41;4964014;28;24441;-76
2022/09/11 11:24:05;;;;;;;3.65;2.70;;;;;;;19.16;83.11;96166.59;4973205;28;24492;-76
2022/09/11 11:26:46;;;;;;;5.03;2.75;;;;;;;18.63;81.67;96166.00;4971066;28;25013;-78
2022/09/11 11:29:34;;;;;;;3.17;2.75;;;;;;;18.45;84.66;96166.81;4972003;28;24442;-76
2022/09/11 11:32:16;;;;;;;2.63;2.42;;;;;;;18.19;82.83;96167.28;4970189;28;24452;-76
2022/09/11 11:35:00;;;;;;;3.20;2.40;;;;;;;18.68;87.84;96162.97;4972996;28;24824;-76
2022/09/11 11:37:32;;;;;;;3.40;2.50;;;;;;;18.92;81.83;96164.41;4970934;28;24445;-76
2022/09/11 11:40:04;;;;;;;3.63;2.50;;;;;;;19.15;81.76;96160.53;4973049;28;24436;-76
2022/09/11 11:42:36;;;;;;;2.40;2.20;;;;;;;19.20;79.49;96162.72;4972218;28;24829;-76